createdAt,value
2023-01-02T00:00:49.955Z,27.63
2023-01-02T00:03:56.815Z,29.17
2023-01-02T00:07:00.171Z,27.55
2023-01-02T00:10:03.872Z,27.98
2023-01-02T00:13:07.321Z,29.63
2023-01-02T00:16:10.597Z,27.87
2023-01-02T00:19:13.972Z,25.60
2023-01-02T00:22:17.255Z,28.48
2023-01-02T00:25:20.504Z,27.90
2023-01-02T00:28:23.835Z,31.25
2023-01-02T00:31:27.584Z,30.87
2023-01-02T00:34:34.465Z,30.63
2023-01-02T00:37:37.828Z,32.92
2023-01-02T00:40:41.713Z,31.58
2023-01-02T00:43:44.911Z,32.25
2023-01-02T00:46:48.493Z,33.22
2023-01-02T00:49:53.080Z,36.63
2023-01-02T00:52:56.385Z,34.08
2023-01-02T00:55:59.666Z,35.83
2023-01-02T00:59:03.031Z,33.70
2023-01-02T01:02:06.377Z,34.40
2023-01-02T01:05:09.915Z,33.20
2023-01-02T01:08:13.260Z,31.58
2023-01-02T01:11:17.864Z,32.40
2023-01-02T01:14:21.213Z,31.40
2023-01-02T01:17:24.415Z,30.60
2023-01-02T01:20:27.986Z,31.67
2023-01-02T01:23:31.211Z,29.90
2023-01-02T01:26:34.446Z,31.30
2023-01-02T01:29:37.904Z,30.83
2023-01-02T01:32:41.192Z,31.45
2023-01-02T01:35:44.414Z,33.80
2023-01-02T01:38:48.656Z,32.80
2023-01-02T01:41:52.195Z,32.55
2023-01-02T01:44:56.371Z,32.00
2023-01-02T01:48:01.577Z,36.28
2023-01-02T01:51:05.179Z,33.23
2023-01-02T01:54:11.698Z,37.45
2023-01-02T01:57:41.368Z,34.17
2023-01-02T02:00:45.714Z,32.75
2023-01-02T02:03:51.013Z,38.73
2023-01-02T02:06:54.679Z,36.00
2023-01-02T02:10:07.008Z,34.72
2023-01-02T02:13:10.311Z,35.80
2023-01-02T02:16:16.374Z,37.70
2023-01-02T02:19:50.045Z,35.63
2023-01-02T02:23:02.298Z,34.67
2023-01-02T02:26:18.003Z,37.22
2023-01-02T02:29:29.744Z,38.90
2023-01-02T02:32:53.762Z,34.50
2023-01-02T02:36:14.724Z,35.55
2023-01-02T02:39:26.796Z,33.45
2023-01-02T02:42:55.625Z,31.73
2023-01-02T02:46:35.049Z,33.58
2023-01-02T02:49:47.339Z,32.38
2023-01-02T02:53:11.772Z,30.70
2023-01-02T02:56:16.741Z,30.00
2023-01-02T02:59:22.274Z,26.13
2023-01-02T03:02:25.686Z,28.60
2023-01-02T03:05:39.579Z,28.75
2023-01-02T03:08:57.797Z,28.60
2023-01-02T03:12:13.746Z,28.38
2023-01-02T03:15:29.118Z,27.70
2023-01-02T03:18:56.588Z,27.60
2023-01-02T03:22:08.677Z,25.00
2023-01-02T03:25:13.521Z,28.00
2023-01-02T03:28:19.650Z,27.95
2023-01-02T03:31:26.652Z,26.90
2023-01-02T03:34:32.720Z,25.43
2023-01-02T03:37:41.192Z,29.35
2023-01-02T03:40:53.351Z,31.15
2023-01-02T03:43:58.006Z,33.60
2023-01-02T03:47:17.064Z,39.25
2023-01-02T03:50:34.530Z,29.15
2023-01-02T03:53:40.074Z,35.55
2023-01-02T03:57:04.949Z,30.33
2023-01-02T04:00:13.223Z,27.60
2023-01-02T04:03:27.009Z,30.35
2023-01-02T04:06:35.453Z,29.25
2023-01-02T04:09:40.336Z,30.20
2023-01-02T04:12:48.128Z,29.10
2023-01-02T04:15:52.771Z,30.05
2023-01-02T04:19:01.783Z,30.13
2023-01-02T04:22:09.971Z,32.50
2023-01-02T04:25:16.555Z,29.37
2023-01-02T04:28:30.679Z,28.80
2023-01-02T04:31:46.011Z,27.58
2023-01-02T04:34:51.316Z,30.00
2023-01-02T04:37:54.612Z,39.47
2023-01-02T04:41:01.855Z,28.52
2023-01-02T04:44:05.232Z,26.75
2023-01-02T04:47:09.745Z,28.05
2023-01-02T04:50:13.179Z,29.10
2023-01-02T04:53:16.562Z,31.80
2023-01-02T04:56:20.126Z,27.77
2023-01-02T04:59:23.380Z,28.00
2023-01-02T05:02:26.805Z,30.15
2023-01-02T05:05:30.185Z,27.05
2023-01-02T05:08:33.678Z,25.95
2023-01-02T05:11:37.528Z,29.17
2023-01-02T05:14:40.782Z,32.08
2023-01-02T05:17:44.069Z,31.83
2023-01-02T05:20:49.194Z,32.15
2023-01-02T05:23:52.368Z,29.57
2023-01-02T05:26:55.659Z,35.55
2023-01-02T05:29:58.976Z,37.03
2023-01-02T05:33:02.201Z,31.27
2023-01-02T05:36:07.382Z,36.40
2023-01-02T05:39:12.302Z,42.55
2023-01-02T05:42:15.594Z,44.88
2023-01-02T05:45:18.848Z,39.78
2023-01-02T05:48:22.164Z,37.92
2023-01-02T05:51:25.484Z,48.10
2023-01-02T05:54:28.875Z,46.65
2023-01-02T05:57:32.133Z,56.90
2023-01-02T06:00:37.649Z,55.80
2023-01-02T06:03:44.400Z,51.80
2023-01-02T06:06:49.542Z,46.50
2023-01-02T06:09:52.729Z,49.87
2023-01-02T06:12:56.140Z,43.55
2023-01-02T06:16:00.683Z,45.67
2023-01-02T06:19:07.709Z,40.15
2023-01-02T06:22:10.916Z,46.25
2023-01-02T06:25:14.258Z,47.15
2023-01-02T06:28:17.484Z,49.03
2023-01-02T06:31:23.192Z,48.07
2023-01-02T06:34:26.385Z,43.03
2023-01-02T06:37:29.676Z,39.30
2023-01-02T06:40:32.934Z,38.65
2023-01-02T06:43:41.000Z,38.90
2023-01-02T06:46:44.224Z,45.92
2023-01-02T06:49:47.668Z,47.20
2023-01-02T06:52:51.438Z,46.78
2023-01-02T06:55:58.781Z,54.65
2023-01-02T06:59:02.002Z,48.38
2023-01-02T07:02:05.250Z,45.85
2023-01-02T07:05:08.751Z,37.57
2023-01-02T07:08:12.814Z,40.13
2023-01-02T07:11:27.146Z,36.30
2023-01-02T07:14:30.338Z,40.55
2023-01-02T07:17:33.841Z,37.87
2023-01-02T07:20:37.204Z,41.78
2023-01-02T07:23:41.615Z,43.13
2023-01-02T07:26:44.903Z,47.50
2023-01-02T07:29:49.502Z,44.00
2023-01-02T07:32:54.114Z,46.88
2023-01-02T07:36:01.615Z,49.90
2023-01-02T07:39:05.134Z,49.95
2023-01-02T07:42:08.441Z,53.73
2023-01-02T07:45:11.881Z,55.65
2023-01-02T07:48:15.074Z,53.53
2023-01-02T07:51:26.292Z,47.58
2023-01-02T07:54:31.610Z,51.63
2023-01-02T07:57:34.852Z,52.90
2023-01-02T08:00:38.598Z,58.80
2023-01-02T08:03:44.666Z,54.28
2023-01-02T08:06:48.301Z,54.37
2023-01-02T08:09:51.562Z,58.30
2023-01-02T08:13:00.371Z,50.25
2023-01-02T08:16:11.798Z,56.92
2023-01-02T08:19:15.182Z,50.73
2023-01-02T08:22:18.394Z,51.53
2023-01-02T08:25:22.639Z,56.67
2023-01-02T08:28:26.380Z,54.47
2023-01-02T08:31:29.935Z,53.83
2023-01-02T08:34:35.091Z,54.88
2023-01-02T08:37:38.313Z,55.58
2023-01-02T08:40:44.235Z,60.97
2023-01-02T08:43:47.609Z,60.47
2023-01-02T08:46:50.984Z,57.38
2023-01-02T08:49:54.222Z,58.33
2023-01-02T08:52:57.622Z,63.60
2023-01-02T08:56:24.543Z,59.20
2023-01-02T08:59:28.138Z,63.80
2023-01-02T09:02:32.132Z,58.72
2023-01-02T09:05:35.662Z,56.07
2023-01-02T09:08:38.858Z,55.65
2023-01-02T09:11:51.018Z,54.08
2023-01-02T09:14:54.330Z,50.05
2023-01-02T09:17:57.554Z,50.75
2023-01-02T09:21:00.982Z,52.30
2023-01-02T09:24:04.951Z,50.40
2023-01-02T09:27:08.228Z,39.72
2023-01-02T09:30:11.913Z,47.90
2023-01-02T09:33:15.445Z,49.33
2023-01-02T09:36:19.859Z,33.72
2023-01-02T09:39:28.485Z,40.53
2023-01-02T09:42:35.615Z,40.67
2023-01-02T09:45:43.825Z,45.03
2023-01-02T09:48:47.072Z,38.77
2023-01-02T09:51:50.757Z,40.30
2023-01-02T09:54:54.263Z,39.38
2023-01-02T09:58:14.411Z,38.75
2023-01-02T10:01:58.409Z,41.10
2023-01-02T10:05:29.536Z,38.63
2023-01-02T10:08:51.086Z,38.78
2023-01-02T10:12:04.932Z,32.47
2023-01-02T10:15:13.751Z,33.60
2023-01-02T10:18:41.589Z,33.97
2023-01-02T10:21:48.972Z,37.87
2023-01-02T10:25:13.977Z,32.10
2023-01-02T10:28:48.724Z,33.65
2023-01-02T10:32:02.585Z,31.35
2023-01-02T10:35:08.524Z,31.75
2023-01-02T10:38:14.105Z,30.53
2023-01-02T10:41:18.453Z,26.13
2023-01-02T10:44:30.016Z,26.58
2023-01-02T10:47:35.692Z,25.10
2023-01-02T10:50:48.698Z,27.70
2023-01-02T10:54:06.247Z,24.17
2023-01-02T10:57:20.744Z,22.23
2023-01-02T11:00:31.595Z,20.45
2023-01-02T11:03:35.270Z,26.15
2023-01-02T11:06:52.606Z,26.98
2023-01-02T11:09:57.398Z,27.20
2023-01-02T11:13:56.681Z,29.23
2023-01-02T11:17:10.266Z,23.98
2023-01-02T11:20:28.696Z,22.40
2023-01-02T11:23:38.950Z,23.75
2023-01-02T11:26:43.959Z,23.87
2023-01-02T11:29:50.441Z,22.88
2023-01-02T11:33:08.164Z,18.13
2023-01-02T11:36:11.584Z,24.27
2023-01-02T11:39:23.304Z,19.50
2023-01-02T11:42:52.339Z,17.47
2023-01-02T11:45:56.074Z,19.80
2023-01-02T11:49:13.509Z,22.30
2023-01-02T11:52:21.672Z,17.02
2023-01-02T11:55:35.991Z,15.68
2023-01-02T11:59:24.687Z,20.40
2023-01-02T12:02:37.247Z,18.48
2023-01-02T12:06:05.422Z,18.88
2023-01-02T12:09:32.582Z,19.92
2023-01-02T12:12:53.077Z,19.90
2023-01-02T12:15:59.243Z,24.07
2023-01-02T12:19:35.268Z,24.10
2023-01-02T12:22:56.949Z,24.65
2023-01-02T12:26:09.837Z,18.42
2023-01-02T12:29:46.399Z,23.58
2023-01-02T12:33:29.162Z,21.87
2023-01-02T12:36:47.396Z,19.90
2023-01-02T12:40:12.753Z,19.30
2023-01-02T12:43:33.878Z,15.88
2023-01-02T12:47:03.814Z,21.42
2023-01-02T12:50:27.855Z,22.53
2023-01-02T12:54:20.178Z,22.77
2023-01-02T12:57:29.679Z,23.55
2023-01-02T13:00:46.247Z,21.25
2023-01-02T13:04:10.241Z,19.85
2023-01-02T13:07:48.596Z,20.23
2023-01-02T13:10:54.416Z,19.20
2023-01-02T13:13:58.763Z,21.25
2023-01-02T13:17:10.622Z,20.75
2023-01-02T13:20:44.821Z,22.10
2023-01-02T13:23:48.791Z,20.70
2023-01-02T13:26:54.228Z,20.13
2023-01-02T13:30:01.568Z,21.73
2023-01-02T13:33:26.357Z,19.05
2023-01-02T13:36:47.161Z,23.00
2023-01-02T13:39:54.389Z,18.70
2023-01-02T13:43:06.136Z,21.40
2023-01-02T13:46:19.312Z,22.65
2023-01-02T13:49:35.435Z,24.13
2023-01-02T13:52:41.058Z,23.23
2023-01-02T13:56:02.715Z,24.17
2023-01-02T13:59:42.742Z,24.20
2023-01-02T14:03:23.985Z,27.58
2023-01-02T14:06:30.460Z,24.33
2023-01-02T14:09:59.902Z,23.10
2023-01-02T14:13:17.452Z,26.83
2023-01-02T14:16:23.514Z,25.47
2023-01-02T14:19:27.231Z,26.20
2023-01-02T14:22:33.109Z,25.70
2023-01-02T14:25:47.771Z,29.15
2023-01-02T14:28:52.604Z,29.70
2023-01-02T14:32:18.039Z,31.77
2023-01-02T14:35:23.063Z,33.80
2023-01-02T14:38:30.408Z,32.60
2023-01-02T14:42:10.174Z,33.85
2023-01-02T14:45:20.687Z,34.43
2023-01-02T14:48:34.907Z,30.97
2023-01-02T14:52:00.303Z,30.70
2023-01-02T14:55:11.566Z,35.05
2023-01-02T14:58:33.755Z,31.50
2023-01-02T15:01:42.783Z,30.83
2023-01-02T15:05:06.237Z,30.92
2023-01-02T15:08:13.972Z,32.30
2023-01-02T15:11:38.857Z,32.13
2023-01-02T15:14:43.338Z,35.92
2023-01-02T15:17:50.660Z,34.57
2023-01-02T15:21:05.979Z,36.70
2023-01-02T15:24:26.897Z,34.45
2023-01-02T15:27:34.372Z,35.30
2023-01-02T15:30:39.514Z,32.55
2023-01-02T15:33:42.860Z,33.07
2023-01-02T15:36:46.160Z,32.70
2023-01-02T15:39:52.960Z,34.60
2023-01-02T15:43:19.171Z,34.95
2023-01-02T15:46:22.477Z,31.80
2023-01-02T15:49:26.403Z,35.93
2023-01-02T15:52:33.641Z,34.35
2023-01-02T15:55:41.143Z,36.50
2023-01-02T15:58:50.587Z,40.58
2023-01-02T16:01:54.019Z,38.50
2023-01-02T16:05:15.219Z,41.67
2023-01-02T16:08:26.197Z,39.30
2023-01-02T16:11:29.925Z,41.15
2023-01-02T16:14:43.773Z,39.80
2023-01-02T16:17:47.491Z,38.20
2023-01-02T16:20:51.315Z,40.77
2023-01-02T16:23:55.690Z,40.25
2023-01-02T16:26:59.121Z,40.55
2023-01-02T16:30:17.900Z,45.65
2023-01-02T16:33:25.204Z,44.47
2023-01-02T16:36:29.298Z,42.43
2023-01-02T16:41:00.452Z,43.28
2023-01-02T16:43:57.020Z,41.05
2023-01-02T16:47:00.285Z,41.67
2023-01-02T16:50:06.308Z,46.97
2023-01-02T16:53:12.844Z,40.13
2023-01-02T16:56:16.673Z,44.50
2023-01-02T16:59:20.079Z,42.60
2023-01-02T17:02:23.334Z,41.28
2023-01-02T17:05:37.787Z,44.67
2023-01-02T17:08:41.403Z,45.10
2023-01-02T17:12:01.312Z,42.33
2023-01-02T17:15:05.102Z,44.50
2023-01-02T17:18:09.807Z,45.72
2023-01-02T17:21:14.122Z,42.20
2023-01-02T17:24:17.892Z,42.07
2023-01-02T17:27:21.777Z,45.00
2023-01-02T17:30:26.406Z,46.45
2023-01-02T17:33:29.684Z,44.20
2023-01-02T17:36:33.882Z,43.00
2023-01-02T17:39:37.508Z,48.33
2023-01-02T17:42:41.160Z,47.47
2023-01-02T17:45:44.495Z,44.40
2023-01-02T17:48:47.864Z,47.67
2023-01-02T17:51:51.461Z,44.55
2023-01-02T17:54:56.717Z,44.37
2023-01-02T17:58:01.085Z,48.22
2023-01-02T18:01:05.931Z,48.55
2023-01-02T18:04:09.120Z,48.25
2023-01-02T18:07:13.577Z,46.35
2023-01-02T18:10:20.325Z,53.50
2023-01-02T18:13:26.277Z,49.00
2023-01-02T18:16:41.872Z,45.75
2023-01-02T18:19:47.530Z,47.72
2023-01-02T18:22:51.314Z,48.63
2023-01-02T18:25:54.633Z,50.60
2023-01-02T18:29:02.982Z,55.53
2023-01-02T18:32:27.231Z,49.92
2023-01-02T18:39:39.175Z,53.13
2023-01-02T18:42:44.818Z,50.07
2023-01-02T18:45:56.327Z,58.97
2023-01-02T18:49:29.223Z,58.08
2023-01-02T18:52:33.346Z,57.15
2023-01-02T18:55:40.662Z,58.67
2023-01-02T18:58:51.620Z,56.37
2023-01-02T19:01:58.000Z,59.03
2023-01-02T19:05:01.648Z,55.85
2023-01-02T19:08:25.169Z,51.90
2023-01-02T19:11:56.415Z,53.55
2023-01-02T19:15:02.067Z,51.43
2023-01-02T19:18:15.032Z,51.40
2023-01-02T19:21:29.750Z,51.80
2023-01-02T19:24:37.291Z,51.95
2023-01-02T19:27:40.507Z,61.77
2023-01-02T19:30:45.766Z,60.55
2023-01-02T19:34:01.364Z,62.47
2023-01-02T19:37:10.433Z,61.13
2023-01-02T19:40:19.777Z,54.25
2023-01-02T19:43:23.435Z,55.23
2023-01-02T19:46:26.562Z,53.40
2023-01-02T19:49:30.116Z,54.17
2023-01-02T19:52:33.641Z,50.42
2023-01-02T19:55:37.014Z,50.55
2023-01-02T19:58:40.430Z,49.80
2023-01-02T20:01:44.217Z,53.25
2023-01-02T20:04:50.216Z,50.40
2023-01-02T20:07:54.471Z,54.13
2023-01-02T20:10:57.830Z,54.60
2023-01-02T20:14:01.178Z,50.22
2023-01-02T20:17:04.900Z,51.58
2023-01-02T20:20:12.233Z,55.00
2023-01-02T20:23:15.537Z,53.90
2023-01-02T20:26:18.744Z,51.93
2023-01-02T20:29:23.254Z,52.38
2023-01-02T20:32:26.771Z,51.13
2023-01-02T20:35:30.133Z,52.67
2023-01-02T20:38:33.442Z,50.88
2023-01-02T20:41:40.183Z,51.83
2023-01-02T20:44:44.138Z,48.92
2023-01-02T20:47:47.479Z,48.35
2023-01-02T20:50:50.907Z,52.33
2023-01-02T20:53:54.273Z,50.95
2023-01-02T20:56:57.807Z,49.17
2023-01-02T21:00:01.379Z,50.85
2023-01-02T21:03:06.216Z,53.88
2023-01-02T21:06:09.982Z,54.15
2023-01-02T21:09:13.803Z,53.05
2023-01-02T21:12:35.900Z,52.20
2023-01-02T21:15:45.824Z,48.63
2023-01-02T21:18:49.060Z,50.03
2023-01-02T21:21:52.314Z,51.83
2023-01-02T21:24:55.646Z,50.13
2023-01-02T21:27:58.987Z,45.42
2023-01-02T21:31:02.658Z,49.03
2023-01-02T21:34:06.166Z,48.75
2023-01-02T21:37:09.365Z,44.92
2023-01-02T21:40:12.944Z,48.73
2023-01-02T21:43:16.187Z,48.33
2023-01-02T21:46:19.683Z,49.28
2023-01-02T21:49:22.940Z,49.33
2023-01-02T21:52:28.442Z,55.27
2023-01-02T21:55:32.579Z,49.90
2023-01-02T21:58:35.998Z,51.55
2023-01-02T22:01:39.332Z,49.28
2023-01-02T22:04:42.575Z,51.63
2023-01-02T22:07:46.471Z,50.38
2023-01-02T22:10:52.081Z,53.90
2023-01-02T22:13:55.215Z,49.40
2023-01-02T22:17:04.693Z,52.85
2023-01-02T22:20:08.908Z,48.17
2023-01-02T22:23:13.463Z,54.08
2023-01-02T22:26:16.903Z,51.17
2023-01-02T22:29:29.278Z,46.40
2023-01-02T22:32:41.543Z,52.67
2023-01-02T22:35:44.838Z,45.05
2023-01-02T22:39:17.510Z,43.83
2023-01-02T22:43:00.385Z,43.53
2023-01-02T22:46:07.848Z,42.80
2023-01-02T22:49:17.153Z,44.88
2023-01-02T22:52:22.631Z,47.08
2023-01-02T22:55:25.840Z,44.87
2023-01-02T22:58:29.951Z,44.97
2023-01-02T23:01:37.425Z,43.63
2023-01-02T23:04:40.762Z,46.85
2023-01-02T23:07:44.375Z,47.92
2023-01-02T23:10:47.562Z,44.42
2023-01-02T23:13:56.360Z,44.95
2023-01-02T23:17:18.455Z,54.28
2023-01-02T23:20:26.737Z,50.00
2023-01-02T23:23:30.255Z,51.23
2023-01-02T23:26:38.245Z,57.65
2023-01-02T23:29:41.914Z,52.17
2023-01-02T23:32:45.482Z,54.60
2023-01-02T23:35:50.711Z,55.47
2023-01-02T23:38:54.193Z,51.23
2023-01-02T23:41:58.073Z,55.25
2023-01-02T23:45:01.303Z,52.63
2023-01-02T23:48:04.907Z,51.80
2023-01-02T23:51:08.166Z,54.83
2023-01-02T23:54:14.067Z,52.30
2023-01-02T23:57:17.366Z,58.55
